sensor_id;sensor_type;location;lat;lon;timestamp;pressure;altitude;pressure_sealevel;temperature;humidity
31331;BME280;34067;39.548;-76.088;2022-11-25T00:01:23;102375.84;;;7.05;58.63
31331;BME280;34067;39.548;-76.088;2022-11-25T00:03:54;102367.38;;;7.59;57.30
31331;BME280;34067;39.548;-76.088;2022-11-25T00:06:24;102363.16;;;7.35;58.19
31331;BME280;34067;39.548;-76.088;2022-11-25T00:08:54;102363.80;;;7.54;57.83
31331;BME280;34067;39.548;-76.088;2022-11-25T00:11:23;102370.67;;;7.01;60.01
31331;BME280;34067;39.548;-76.088;2022-11-25T00:13:51;102369.00;;;7.44;59.85
31331;BME280;34067;39.548;-76.088;2022-11-25T00:16:20;102372.13;;;6.37;60.02
31331;BME280;34067;39.548;-76.088;2022-11-25T00:18:50;102370.06;;;7.33;58.48
31331;BME280;34067;39.548;-76.088;2022-11-25T00:21:19;102365.93;;;6.72;58.17
31331;BME280;34067;39.548;-76.088;2022-11-25T00:23:51;102361.21;;;6.90;57.09
31331;BME280;34067;39.548;-76.088;2022-11-25T00:26:19;102358.16;;;7.25;56.68
31331;BME280;34067;39.548;-76.088;2022-11-25T00:28:50;102361.66;;;7.23;55.72
31331;BME280;34067;39.548;-76.088;2022-11-25T00:31:20;102368.66;;;7.27;55.51
31331;BME280;34067;39.548;-76.088;2022-11-25T00:33:49;102373.35;;;7.01;55.45
31331;BME280;34067;39.548;-76.088;2022-11-25T00:36:20;102369.71;;;6.47;56.51
31331;BME280;34067;39.548;-76.088;2022-11-25T00:38:52;102369.75;;;7.17;55.58
31331;BME280;34067;39.548;-76.088;2022-11-25T00:41:21;102367.89;;;7.48;54.79
31331;BME280;34067;39.548;-76.088;2022-11-25T00:43:49;102376.32;;;7.63;55.11
31331;BME280;34067;39.548;-76.088;2022-11-25T00:46:17;102383.26;;;7.05;54.97
31331;BME280;34067;39.548;-76.088;2022-11-25T00:48:44;102381.31;;;6.81;54.96
31331;BME280;34067;39.548;-76.088;2022-11-25T00:51:12;102380.31;;;7.72;53.53
31331;BME280;34067;39.548;-76.088;2022-11-25T00:53:40;102382.07;;;6.71;53.62
31331;BME280;34067;39.548;-76.088;2022-11-25T00:56:08;102377.74;;;7.18;53.85
31331;BME280;34067;39.548;-76.088;2022-11-25T00:58:35;102379.18;;;7.42;56.31
31331;BME280;34067;39.548;-76.088;2022-11-25T01:01:03;102370.38;;;7.44;54.31
31331;BME280;34067;39.548;-76.088;2022-11-25T01:03:31;102368.14;;;6.96;54.46
31331;BME280;34067;39.548;-76.088;2022-11-25T01:06:00;102368.31;;;6.17;57.02
31331;BME280;34067;39.548;-76.088;2022-11-25T01:08:29;102370.81;;;6.69;57.91
31331;BME280;34067;39.548;-76.088;2022-11-25T01:10:58;102372.13;;;6.63;58.11
31331;BME280;34067;39.548;-76.088;2022-11-25T01:13:26;102371.51;;;6.74;57.18
31331;BME280;34067;39.548;-76.088;2022-11-25T01:15:54;102372.14;;;6.43;57.20
31331;BME280;34067;39.548;-76.088;2022-11-25T01:18:22;102369.23;;;6.49;57.56
31331;BME280;34067;39.548;-76.088;2022-11-25T01:20:50;102354.50;;;6.37;59.06
31331;BME280;34067;39.548;-76.088;2022-11-25T01:23:18;102346.80;;;6.66;59.01
31331;BME280;34067;39.548;-76.088;2022-11-25T01:25:45;102341.62;;;7.02;58.18
31331;BME280;34067;39.548;-76.088;2022-11-25T01:28:13;102335.05;;;6.57;58.45
31331;BME280;34067;39.548;-76.088;2022-11-25T01:30:41;102331.09;;;6.99;58.88
31331;BME280;34067;39.548;-76.088;2022-11-25T01:33:09;102331.50;;;6.62;59.47
31331;BME280;34067;39.548;-76.088;2022-11-25T01:35:37;102332.17;;;6.42;59.96
31331;BME280;34067;39.548;-76.088;2022-11-25T01:38:05;102323.38;;;6.43;59.95
31331;BME280;34067;39.548;-76.088;2022-11-25T01:40:33;102314.77;;;6.98;60.28
31331;BME280;34067;39.548;-76.088;2022-11-25T01:43:02;102308.75;;;6.84;60.52
31331;BME280;34067;39.548;-76.088;2022-11-25T01:45:34;102307.32;;;6.36;61.24
31331;BME280;34067;39.548;-76.088;2022-11-25T01:48:11;102305.75;;;6.93;62.10
31331;BME280;34067;39.548;-76.088;2022-11-25T01:50:41;102304.51;;;6.98;61.86
31331;BME280;34067;39.548;-76.088;2022-11-25T01:53:11;102298.85;;;7.08;61.69
31331;BME280;34067;39.548;-76.088;2022-11-25T01:55:45;102300.54;;;5.94;62.90
31331;BME280;34067;39.548;-76.088;2022-11-25T01:58:17;102299.30;;;6.57;62.73
31331;BME280;34067;39.548;-76.088;2022-11-25T02:00:48;102297.39;;;6.66;62.88
31331;BME280;34067;39.548;-76.088;2022-11-25T02:03:18;102290.80;;;6.17;62.55
31331;BME280;34067;39.548;-76.088;2022-11-25T02:05:53;102292.23;;;6.29;62.39
31331;BME280;34067;39.548;-76.088;2022-11-25T02:08:24;102293.12;;;6.82;62.00
31331;BME280;34067;39.548;-76.088;2022-11-25T02:10:54;102297.71;;;6.81;61.36
31331;BME280;34067;39.548;-76.088;2022-11-25T02:13:23;102297.12;;;6.19;61.23
31331;BME280;34067;39.548;-76.088;2022-11-25T02:15:51;102294.78;;;6.36;61.08
31331;BME280;34067;39.548;-76.088;2022-11-25T02:18:19;102287.34;;;6.19;60.46
31331;BME280;34067;39.548;-76.088;2022-11-25T02:20:47;102288.65;;;6.10;60.76
31331;BME280;34067;39.548;-76.088;2022-11-25T02:23:22;102288.97;;;6.40;60.50
31331;BME280;34067;39.548;-76.088;2022-11-25T02:25:54;102285.03;;;6.13;60.41
31331;BME280;34067;39.548;-76.088;2022-11-25T02:28:23;102282.31;;;6.12;59.06
31331;BME280;34067;39.548;-76.088;2022-11-25T02:30:52;102281.62;;;6.03;59.84
31331;BME280;34067;39.548;-76.088;2022-11-25T02:33:20;102277.69;;;6.34;59.36
31331;BME280;34067;39.548;-76.088;2022-11-25T02:35:50;102277.79;;;6.18;59.63
31331;BME280;34067;39.548;-76.088;2022-11-25T02:38:22;102280.31;;;6.05;59.74
31331;BME280;34067;39.548;-76.088;2022-11-25T02:40:55;102279.54;;;6.05;61.14
31331;BME280;34067;39.548;-76.088;2022-11-25T02:43:27;102268.47;;;6.40;60.11
31331;BME280;34067;39.548;-76.088;2022-11-25T02:45:58;102264.04;;;6.16;61.12
31331;BME280;34067;39.548;-76.088;2022-11-25T02:48:28;102258.70;;;6.36;60.86
31331;BME280;34067;39.548;-76.088;2022-11-25T02:50:56;102258.08;;;6.19;61.53
31331;BME280;34067;39.548;-76.088;2022-11-25T02:53:24;102245.75;;;5.76;61.48
31331;BME280;34067;39.548;-76.088;2022-11-25T02:55:52;102241.56;;;5.93;63.33
31331;BME280;34067;39.548;-76.088;2022-11-25T02:58:21;102236.52;;;5.80;62.60
31331;BME280;34067;39.548;-76.088;2022-11-25T03:00:48;102228.07;;;6.14;63.36
31331;BME280;34067;39.548;-76.088;2022-11-25T03:03:16;102219.49;;;5.86;63.03
31331;BME280;34067;39.548;-76.088;2022-11-25T03:05:44;102220.62;;;6.25;63.50
31331;BME280;34067;39.548;-76.088;2022-11-25T03:08:12;102220.28;;;6.47;63.10
31331;BME280;34067;39.548;-76.088;2022-11-25T03:10:40;102218.02;;;5.41;64.49
31331;BME280;34067;39.548;-76.088;2022-11-25T03:13:08;102208.35;;;5.92;63.71
31331;BME280;34067;39.548;-76.088;2022-11-25T03:15:37;102206.83;;;5.83;64.79
31331;BME280;34067;39.548;-76.088;2022-11-25T03:18:05;102205.84;;;5.98;64.31
31331;BME280;34067;39.548;-76.088;2022-11-25T03:20:34;102203.46;;;6.73;63.27
31331;BME280;34067;39.548;-76.088;2022-11-25T03:23:02;102200.42;;;5.90;64.10
31331;BME280;34067;39.548;-76.088;2022-11-25T03:25:31;102199.79;;;6.30;62.72
31331;BME280;34067;39.548;-76.088;2022-11-25T03:27:59;102205.62;;;5.51;64.04
31331;BME280;34067;39.548;-76.088;2022-11-25T03:30:29;102206.84;;;5.86;63.87
31331;BME280;34067;39.548;-76.088;2022-11-25T03:32:57;102203.57;;;6.48;63.15
31331;BME280;34067;39.548;-76.088;2022-11-25T03:35:25;102194.80;;;6.64;62.66
31331;BME280;34067;39.548;-76.088;2022-11-25T03:37:54;102183.68;;;6.28;62.29
31331;BME280;34067;39.548;-76.088;2022-11-25T03:40:22;102182.71;;;6.06;62.46
31331;BME280;34067;39.548;-76.088;2022-11-25T03:42:50;102175.67;;;6.39;62.85
31331;BME280;34067;39.548;-76.088;2022-11-25T03:45:18;102176.01;;;5.64;63.32
31331;BME280;34067;39.548;-76.088;2022-11-25T03:47:46;102171.29;;;5.71;63.36
31331;BME280;34067;39.548;-76.088;2022-11-25T03:50:14;102169.34;;;6.11;63.49
31331;BME280;34067;39.548;-76.088;2022-11-25T03:52:42;102170.99;;;6.22;63.12
31331;BME280;34067;39.548;-76.088;2022-11-25T03:55:10;102153.34;;;6.22;63.85
31331;BME280;34067;39.548;-76.088;2022-11-25T03:57:39;102149.62;;;6.32;63.74
31331;BME280;34067;39.548;-76.088;2022-11-25T04:00:08;102150.02;;;5.96;63.80
31331;BME280;34067;39.548;-76.088;2022-11-25T04:02:36;102149.82;;;6.36;64.07
31331;BME280;34067;39.548;-76.088;2022-11-25T04:05:05;102148.90;;;5.97;64.32
31331;BME280;34067;39.548;-76.088;2022-11-25T04:07:32;102143.70;;;5.83;65.14
31331;BME280;34067;39.548;-76.088;2022-11-25T04:10:01;102141.94;;;5.81;64.61
31331;BME280;34067;39.548;-76.088;2022-11-25T04:12:29;102139.54;;;6.31;64.57
31331;BME280;34067;39.548;-76.088;2022-11-25T04:14:57;102139.01;;;6.22;64.53
31331;BME280;34067;39.548;-76.088;2022-11-25T04:17:25;102134.32;;;6.59;64.99
31331;BME280;34067;39.548;-76.088;2022-11-25T04:19:53;102132.47;;;6.10;65.09
31331;BME280;34067;39.548;-76.088;2022-11-25T04:22:21;102133.30;;;6.04;65.03
31331;BME280;34067;39.548;-76.088;2022-11-25T04:24:49;102137.83;;;6.29;64.84
31331;BME280;34067;39.548;-76.088;2022-11-25T04:27:17;102143.41;;;5.75;65.67
31331;BME280;34067;39.548;-76.088;2022-11-25T04:29:46;102146.87;;;6.20;65.47
31331;BME280;34067;39.548;-76.088;2022-11-25T04:32:14;102150.36;;;5.78;66.05
31331;BME280;34067;39.548;-76.088;2022-11-25T04:34:42;102145.72;;;4.38;69.04
31331;BME280;34067;39.548;-76.088;2022-11-25T04:37:09;102144.29;;;5.62;68.08
31331;BME280;34067;39.548;-76.088;2022-11-25T04:39:38;102141.68;;;5.55;66.51
31331;BME280;34067;39.548;-76.088;2022-11-25T04:42:07;102134.71;;;6.36;65.24
31331;BME280;34067;39.548;-76.088;2022-11-25T04:44:34;102132.79;;;5.52;65.29
31331;BME280;34067;39.548;-76.088;2022-11-25T04:47:02;102126.67;;;5.64;64.80
31331;BME280;34067;39.548;-76.088;2022-11-25T04:49:30;102124.19;;;6.24;65.40
31331;BME280;34067;39.548;-76.088;2022-11-25T04:51:58;102126.25;;;5.91;66.48
31331;BME280;34067;39.548;-76.088;2022-11-25T04:54:26;102126.33;;;5.92;66.81
31331;BME280;34067;39.548;-76.088;2022-11-25T04:56:54;102120.71;;;5.45;69.01
31331;BME280;34067;39.548;-76.088;2022-11-25T04:59:22;102117.85;;;5.09;70.58
31331;BME280;34067;39.548;-76.088;2022-11-25T05:01:50;102109.85;;;5.91;69.04
31331;BME280;34067;39.548;-76.088;2022-11-25T05:04:18;102109.84;;;5.50;68.97
31331;BME280;34067;39.548;-76.088;2022-11-25T05:06:46;102100.92;;;5.79;68.02
31331;BME280;34067;39.548;-76.088;2022-11-25T05:09:14;102100.01;;;5.56;67.32
31331;BME280;34067;39.548;-76.088;2022-11-25T05:11:43;102092.91;;;6.11;67.25
31331;BME280;34067;39.548;-76.088;2022-11-25T05:14:11;102087.03;;;6.39;67.30
31331;BME280;34067;39.548;-76.088;2022-11-25T05:16:38;102099.31;;;5.98;68.61
31331;BME280;34067;39.548;-76.088;2022-11-25T05:19:06;102103.27;;;6.29;68.37
31331;BME280;34067;39.548;-76.088;2022-11-25T05:21:34;102100.81;;;5.41;68.79
31331;BME280;34067;39.548;-76.088;2022-11-25T05:24:02;102099.11;;;6.24;67.54
31331;BME280;34067;39.548;-76.088;2022-11-25T05:26:30;102087.60;;;6.30;66.95
31331;BME280;34067;39.548;-76.088;2022-11-25T05:28:58;102081.10;;;5.50;66.76
31331;BME280;34067;39.548;-76.088;2022-11-25T05:31:26;102074.12;;;6.06;66.20
31331;BME280;34067;39.548;-76.088;2022-11-25T05:33:54;102071.25;;;6.05;65.79
31331;BME280;34067;39.548;-76.088;2022-11-25T05:36:21;102066.60;;;5.68;65.42
31331;BME280;34067;39.548;-76.088;2022-11-25T05:38:49;102060.45;;;6.09;65.55
31331;BME280;34067;39.548;-76.088;2022-11-25T05:41:17;102053.79;;;5.71;65.28
31331;BME280;34067;39.548;-76.088;2022-11-25T05:43:45;102045.91;;;6.39;65.65
31331;BME280;34067;39.548;-76.088;2022-11-25T05:46:13;102048.46;;;5.68;65.76
31331;BME280;34067;39.548;-76.088;2022-11-25T05:48:41;102048.91;;;5.66;65.94
31331;BME280;34067;39.548;-76.088;2022-11-25T05:51:09;102042.10;;;5.83;65.79
31331;BME280;34067;39.548;-76.088;2022-11-25T05:53:36;102041.20;;;5.80;65.56
31331;BME280;34067;39.548;-76.088;2022-11-25T05:56:05;102037.30;;;5.78;65.52
31331;BME280;34067;39.548;-76.088;2022-11-25T05:58:33;102027.20;;;5.91;65.91
31331;BME280;34067;39.548;-76.088;2022-11-25T06:03:10;102010.01;;;5.83;65.38
31331;BME280;34067;39.548;-76.088;2022-11-25T06:05:38;101999.65;;;5.47;65.43
31331;BME280;34067;39.548;-76.088;2022-11-25T06:08:05;101996.93;;;5.35;66.50
31331;BME280;34067;39.548;-76.088;2022-11-25T06:10:33;101994.91;;;6.27;66.26
31331;BME280;34067;39.548;-76.088;2022-11-25T06:13:01;101994.35;;;5.47;65.78
31331;BME280;34067;39.548;-76.088;2022-11-25T06:15:29;101991.72;;;5.50;65.98
31331;BME280;34067;39.548;-76.088;2022-11-25T06:17:57;101983.26;;;5.85;66.02
31331;BME280;34067;39.548;-76.088;2022-11-25T06:20:26;101982.52;;;5.88;66.50
31331;BME280;34067;39.548;-76.088;2022-11-25T06:22:54;101981.11;;;5.83;67.03
31331;BME280;34067;39.548;-76.088;2022-11-25T06:25:22;101973.42;;;5.53;67.33
31331;BME280;34067;39.548;-76.088;2022-11-25T06:27:50;101974.01;;;5.70;67.97
31331;BME280;34067;39.548;-76.088;2022-11-25T06:30:19;101968.38;;;5.72;66.70
31331;BME280;34067;39.548;-76.088;2022-11-25T06:32:47;101975.38;;;5.28;67.07
31331;BME280;34067;39.548;-76.088;2022-11-25T06:35:15;101973.61;;;6.07;65.95
31331;BME280;34067;39.548;-76.088;2022-11-25T06:37:43;101972.28;;;5.80;65.69
31331;BME280;34067;39.548;-76.088;2022-11-25T06:40:11;101968.63;;;5.80;64.94
31331;BME280;34067;39.548;-76.088;2022-11-25T06:42:39;101962.47;;;6.21;64.43
31331;BME280;34067;39.548;-76.088;2022-11-25T06:45:08;101961.11;;;6.63;64.00
31331;BME280;34067;39.548;-76.088;2022-11-25T06:47:37;101952.59;;;6.24;63.94
31331;BME280;34067;39.548;-76.088;2022-11-25T06:50:05;101950.19;;;6.23;64.16
31331;BME280;34067;39.548;-76.088;2022-11-25T06:52:34;101951.36;;;6.21;64.07
31331;BME280;34067;39.548;-76.088;2022-11-25T06:55:02;101946.54;;;6.20;64.99
31331;BME280;34067;39.548;-76.088;2022-11-25T06:57:31;101944.16;;;6.28;65.41
31331;BME280;34067;39.548;-76.088;2022-11-25T06:59:59;101941.38;;;6.35;65.90
31331;BME280;34067;39.548;-76.088;2022-11-25T07:02:27;101940.54;;;6.30;66.41
31331;BME280;34067;39.548;-76.088;2022-11-25T07:04:55;101932.52;;;6.23;66.49
31331;BME280;34067;39.548;-76.088;2022-11-25T07:07:23;101934.39;;;6.26;65.97
31331;BME280;34067;39.548;-76.088;2022-11-25T07:09:51;101932.97;;;6.50;65.59
31331;BME280;34067;39.548;-76.088;2022-11-25T07:12:19;101927.33;;;6.68;65.18
31331;BME280;34067;39.548;-76.088;2022-11-25T07:14:49;101922.90;;;6.73;64.93
31331;BME280;34067;39.548;-76.088;2022-11-25T07:17:18;101930.07;;;6.83;65.39
31331;BME280;34067;39.548;-76.088;2022-11-25T07:19:46;101922.49;;;6.81;65.67
31331;BME280;34067;39.548;-76.088;2022-11-25T07:22:14;101921.54;;;6.59;65.64
31331;BME280;34067;39.548;-76.088;2022-11-25T07:24:42;101923.61;;;6.69;65.62
31331;BME280;34067;39.548;-76.088;2022-11-25T07:27:09;101922.52;;;6.79;64.93
31331;BME280;34067;39.548;-76.088;2022-11-25T07:29:38;101926.68;;;5.98;64.92
31331;BME280;34067;39.548;-76.088;2022-11-25T07:32:05;101919.00;;;5.91;65.21
31331;BME280;34067;39.548;-76.088;2022-11-25T07:34:33;101912.81;;;6.36;65.17
31331;BME280;34067;39.548;-76.088;2022-11-25T07:37:01;101905.22;;;6.51;64.62
31331;BME280;34067;39.548;-76.088;2022-11-25T07:39:29;101903.81;;;6.52;64.61
31331;BME280;34067;39.548;-76.088;2022-11-25T07:41:57;101901.01;;;6.58;63.59
31331;BME280;34067;39.548;-76.088;2022-11-25T07:44:24;101897.12;;;6.24;64.52
31331;BME280;34067;39.548;-76.088;2022-11-25T07:46:52;101886.00;;;6.24;65.02
31331;BME280;34067;39.548;-76.088;2022-11-25T07:49:21;101883.84;;;6.58;64.64
31331;BME280;34067;39.548;-76.088;2022-11-25T07:51:51;101887.00;;;6.41;64.76
31331;BME280;34067;39.548;-76.088;2022-11-25T07:54:20;101876.82;;;6.89;64.66
31331;BME280;34067;39.548;-76.088;2022-11-25T07:56:49;101876.82;;;5.96;64.09
31331;BME280;34067;39.548;-76.088;2022-11-25T07:59:19;101862.61;;;6.04;64.81
31331;BME280;34067;39.548;-76.088;2022-11-25T08:01:48;101858.60;;;6.49;64.27
31331;BME280;34067;39.548;-76.088;2022-11-25T08:04:17;101859.04;;;6.60;64.17
31331;BME280;34067;39.548;-76.088;2022-11-25T08:06:46;101855.33;;;6.09;64.20
31331;BME280;34067;39.548;-76.088;2022-11-25T08:09:16;101854.04;;;6.39;63.77
31331;BME280;34067;39.548;-76.088;2022-11-25T08:11:45;101852.36;;;6.60;63.02
31331;BME280;34067;39.548;-76.088;2022-11-25T08:14:14;101842.43;;;7.48;63.39
31331;BME280;34067;39.548;-76.088;2022-11-25T08:16:43;101846.73;;;6.87;63.87
31331;BME280;34067;39.548;-76.088;2022-11-25T08:19:13;101845.13;;;6.67;64.12
31331;BME280;34067;39.548;-76.088;2022-11-25T08:21:42;101841.02;;;6.45;64.35
31331;BME280;34067;39.548;-76.088;2022-11-25T08:24:14;101837.07;;;6.43;64.64
31331;BME280;34067;39.548;-76.088;2022-11-25T08:26:42;101833.88;;;6.59;65.42
31331;BME280;34067;39.548;-76.088;2022-11-25T08:29:12;101836.85;;;6.97;65.24
31331;BME280;34067;39.548;-76.088;2022-11-25T08:31:41;101832.89;;;6.93;64.72
31331;BME280;34067;39.548;-76.088;2022-11-25T08:34:16;101821.20;;;6.78;64.23
31331;BME280;34067;39.548;-76.088;2022-11-25T08:36:44;101811.19;;;7.39;64.02
31331;BME280;34067;39.548;-76.088;2022-11-25T08:39:13;101819.05;;;6.29;64.31
31331;BME280;34067;39.548;-76.088;2022-11-25T08:41:40;101810.42;;;6.87;64.71
31331;BME280;34067;39.548;-76.088;2022-11-25T08:44:09;101790.56;;;7.56;64.55
31331;BME280;34067;39.548;-76.088;2022-11-25T08:46:38;101796.18;;;7.37;65.40
31331;BME280;34067;39.548;-76.088;2022-11-25T08:49:06;101806.59;;;6.73;66.25
31331;BME280;34067;39.548;-76.088;2022-11-25T08:51:36;101791.35;;;6.30;67.70
31331;BME280;34067;39.548;-76.088;2022-11-25T08:54:05;101773.19;;;7.09;67.57
31331;BME280;34067;39.548;-76.088;2022-11-25T08:56:34;101778.01;;;6.95;67.07
31331;BME280;34067;39.548;-76.088;2022-11-25T08:59:02;101778.42;;;7.05;67.86
31331;BME280;34067;39.548;-76.088;2022-11-25T09:01:31;101771.33;;;6.66;67.79
31331;BME280;34067;39.548;-76.088;2022-11-25T09:04:00;101765.36;;;7.44;66.82
31331;BME280;34067;39.548;-76.088;2022-11-25T09:06:28;101759.58;;;7.55;65.44
31331;BME280;34067;39.548;-76.088;2022-11-25T09:08:58;101745.72;;;7.70;66.18
31331;BME280;34067;39.548;-76.088;2022-11-25T09:11:26;101727.47;;;7.48;65.21
31331;BME280;34067;39.548;-76.088;2022-11-25T09:13:54;101723.38;;;7.71;64.58
31331;BME280;34067;39.548;-76.088;2022-11-25T09:16:22;101719.51;;;7.56;65.85
31331;BME280;34067;39.548;-76.088;2022-11-25T09:18:51;101715.62;;;7.74;65.44
31331;BME280;34067;39.548;-76.088;2022-11-25T09:21:19;101709.91;;;7.64;64.46
31331;BME280;34067;39.548;-76.088;2022-11-25T09:23:49;101709.01;;;7.80;65.04
31331;BME280;34067;39.548;-76.088;2022-11-25T09:26:21;101699.05;;;7.71;65.45
31331;BME280;34067;39.548;-76.088;2022-11-25T09:28:49;101698.45;;;7.81;65.35
31331;BME280;34067;39.548;-76.088;2022-11-25T09:31:18;101704.00;;;7.34;65.74
31331;BME280;34067;39.548;-76.088;2022-11-25T09:33:46;101696.60;;;7.68;66.07
31331;BME280;34067;39.548;-76.088;2022-11-25T09:36:15;101685.30;;;7.32;66.65
31331;BME280;34067;39.548;-76.088;2022-11-25T09:38:44;101673.82;;;7.60;66.60
31331;BME280;34067;39.548;-76.088;2022-11-25T09:41:25;101672.45;;;7.20;67.23
31331;BME280;34067;39.548;-76.088;2022-11-25T09:44:01;101663.77;;;7.22;66.45
31331;BME280;34067;39.548;-76.088;2022-11-25T09:46:48;101645.24;;;7.25;66.35
31331;BME280;34067;39.548;-76.088;2022-11-25T09:49:34;101643.04;;;7.14;66.42
31331;BME280;34067;39.548;-76.088;2022-11-25T09:52:14;101641.38;;;7.64;65.57
31331;BME280;34067;39.548;-76.088;2022-11-25T09:54:50;101639.81;;;7.75;65.91
31331;BME280;34067;39.548;-76.088;2022-11-25T09:57:24;101644.89;;;7.76;66.15
31331;BME280;34067;39.548;-76.088;2022-11-25T10:00:03;101642.19;;;7.78;65.64
31331;BME280;34067;39.548;-76.088;2022-11-25T10:02:36;101632.36;;;7.48;66.43
31331;BME280;34067;39.548;-76.088;2022-11-25T10:05:11;101622.88;;;7.58;66.40
31331;BME280;34067;39.548;-76.088;2022-11-25T10:07:45;101620.90;;;7.80;65.77
31331;BME280;34067;39.548;-76.088;2022-11-25T10:10:21;101621.59;;;7.39;65.89
31331;BME280;34067;39.548;-76.088;2022-11-25T10:12:51;101620.69;;;7.88;65.66
31331;BME280;34067;39.548;-76.088;2022-11-25T10:15:25;101620.29;;;7.94;65.51
31331;BME280;34067;39.548;-76.088;2022-11-25T10:17:59;101617.78;;;7.88;65.94
31331;BME280;34067;39.548;-76.088;2022-11-25T10:20:30;101617.62;;;8.25;66.64
31331;BME280;34067;39.548;-76.088;2022-11-25T10:23:03;101620.50;;;7.88;66.47
31331;BME280;34067;39.548;-76.088;2022-11-25T10:25:36;101613.13;;;7.49;66.75
31331;BME280;34067;39.548;-76.088;2022-11-25T10:28:16;101613.09;;;7.95;66.66
31331;BME280;34067;39.548;-76.088;2022-11-25T10:30:49;101615.29;;;7.85;67.33
31331;BME280;34067;39.548;-76.088;2022-11-25T10:33:24;101616.50;;;7.38;70.32
31331;BME280;34067;39.548;-76.088;2022-11-25T10:35:57;101615.52;;;7.19;70.08
31331;BME280;34067;39.548;-76.088;2022-11-25T10:38:30;101615.21;;;7.25;68.71
31331;BME280;34067;39.548;-76.088;2022-11-25T10:41:04;101621.28;;;7.49;69.33
31331;BME280;34067;39.548;-76.088;2022-11-25T10:43:32;101619.56;;;8.11;67.97
31331;BME280;34067;39.548;-76.088;2022-11-25T10:46:09;101611.84;;;7.75;68.02
31331;BME280;34067;39.548;-76.088;2022-11-25T10:48:55;101616.62;;;7.88;67.61
31331;BME280;34067;39.548;-76.088;2022-11-25T10:51:36;101616.80;;;7.97;67.36
31331;BME280;34067;39.548;-76.088;2022-11-25T10:54:10;101610.73;;;8.10;66.49
31331;BME280;34067;39.548;-76.088;2022-11-25T10:56:48;101603.80;;;8.21;65.93
31331;BME280;34067;39.548;-76.088;2022-11-25T10:59:24;101598.29;;;8.34;66.25
31331;BME280;34067;39.548;-76.088;2022-11-25T11:02:11;101599.39;;;8.37;66.66
31331;BME280;34067;39.548;-76.088;2022-11-25T11:04:51;101603.25;;;8.38;66.99
31331;BME280;34067;39.548;-76.088;2022-11-25T11:07:20;101600.62;;;7.87;67.29
31331;BME280;34067;39.548;-76.088;2022-11-25T11:09:49;101600.79;;;8.08;66.96
31331;BME280;34067;39.548;-76.088;2022-11-25T11:12:20;101604.41;;;8.25;66.58
31331;BME280;34067;39.548;-76.088;2022-11-25T11:14:49;101606.30;;;8.87;67.59
31331;BME280;34067;39.548;-76.088;2022-11-25T11:17:29;101612.95;;;7.63;69.13
31331;BME280;34067;39.548;-76.088;2022-11-25T11:20:05;101616.65;;;7.78;69.53
31331;BME280;34067;39.548;-76.088;2022-11-25T11:22:47;101624.36;;;8.70;69.87
31331;BME280;34067;39.548;-76.088;2022-11-25T11:25:27;101625.93;;;7.94;69.69
31331;BME280;34067;39.548;-76.088;2022-11-25T11:27:55;101626.24;;;7.58;71.30
31331;BME280;34067;39.548;-76.088;2022-11-25T11:30:25;101620.28;;;8.35;69.60
31331;BME280;34067;39.548;-76.088;2022-11-25T11:32:58;101612.39;;;7.56;71.11
31331;BME280;34067;39.548;-76.088;2022-11-25T11:35:40;101607.10;;;8.34;70.37
31331;BME280;34067;39.548;-76.088;2022-11-25T11:38:25;101592.78;;;8.35;70.93
31331;BME280;34067;39.548;-76.088;2022-11-25T11:41:07;101587.66;;;8.60;69.75
31331;BME280;34067;39.548;-76.088;2022-11-25T11:43:47;101579.88;;;8.00;70.84
31331;BME280;34067;39.548;-76.088;2022-11-25T11:46:28;101577.96;;;7.91;70.29
31331;BME280;34067;39.548;-76.088;2022-11-25T11:49:08;101566.09;;;8.29;70.97
31331;BME280;34067;39.548;-76.088;2022-11-25T11:51:44;101557.57;;;8.58;70.53
31331;BME280;34067;39.548;-76.088;2022-11-25T11:54:20;101548.24;;;8.21;70.91
31331;BME280;34067;39.548;-76.088;2022-11-25T11:56:58;101535.90;;;8.40;71.72
31331;BME280;34067;39.548;-76.088;2022-11-25T11:59:40;101532.36;;;8.13;72.35
31331;BME280;34067;39.548;-76.088;2022-11-25T12:02:20;101527.91;;;7.97;72.91
31331;BME280;34067;39.548;-76.088;2022-11-25T12:04:59;101513.65;;;7.54;73.18
31331;BME280;34067;39.548;-76.088;2022-11-25T12:07:34;101511.46;;;8.08;71.29
31331;BME280;34067;39.548;-76.088;2022-11-25T12:10:06;101502.52;;;8.59;71.67
31331;BME280;34067;39.548;-76.088;2022-11-25T12:12:44;101491.73;;;7.78;71.80
31331;BME280;34067;39.548;-76.088;2022-11-25T12:15:20;101478.18;;;8.30;70.75
31331;BME280;34067;39.548;-76.088;2022-11-25T12:17:54;101466.09;;;8.71;71.09
31331;BME280;34067;39.548;-76.088;2022-11-25T12:20:33;101465.34;;;8.50;70.94
31331;BME280;34067;39.548;-76.088;2022-11-25T12:23:08;101459.20;;;8.40;71.25
31331;BME280;34067;39.548;-76.088;2022-11-25T12:25:41;101454.07;;;8.34;71.42
31331;BME280;34067;39.548;-76.088;2022-11-25T12:28:14;101446.51;;;8.77;71.65
31331;BME280;34067;39.548;-76.088;2022-11-25T12:30:55;101443.10;;;8.79;71.07
31331;BME280;34067;39.548;-76.088;2022-11-25T12:33:33;101447.80;;;8.01;70.82
31331;BME280;34067;39.548;-76.088;2022-11-25T12:36:07;101449.87;;;7.85;73.39
31331;BME280;34067;39.548;-76.088;2022-11-25T12:38:44;101450.40;;;7.71;74.04
31331;BME280;34067;39.548;-76.088;2022-11-25T12:41:19;101446.55;;;8.46;74.89
31331;BME280;34067;39.548;-76.088;2022-11-25T12:43:53;101443.46;;;7.92;75.54
31331;BME280;34067;39.548;-76.088;2022-11-25T12:46:27;101444.93;;;8.01;75.12
31331;BME280;34067;39.548;-76.088;2022-11-25T12:48:57;101447.81;;;8.23;76.04
31331;BME280;34067;39.548;-76.088;2022-11-25T12:51:41;101445.70;;;7.78;76.29
31331;BME280;34067;39.548;-76.088;2022-11-25T12:54:26;101437.50;;;7.97;76.39
31331;BME280;34067;39.548;-76.088;2022-11-25T12:57:14;101426.75;;;7.94;75.38
31331;BME280;34067;39.548;-76.088;2022-11-25T13:00:02;101422.86;;;8.57;72.33